Terminal Aerodrome Forecast
Issued by NWS

Home | Current Version | Previous Version | Text Only | Print | Product List | Glossary On
Versions: 1 2 3 4 5 6 7 8 9 10 11 12 13 14 15 16 17 18 19 20 21 22 23 24 25 26 27 28 29 30
000
FTUS42 KMFL 232335
TAFMIA
TAF
KMIA 232335Z 2400/2424 11006KT P6SM BKN035 BKN070 BKN250
     FM240600 VRB03KT P6SM VCSH SCT030 BKN050
     FM241500 14006KT P6SM VCTS SCT030CB BKN050
     FM242000 13015KT P6SM VCTS SCT025CB BKN050=

USA.gov is the U.S. government's official web portal to all federal, state and local government web resources and services.